sensor_id;sensor_type;location;lat;lon;timestamp;P1;durP1;ratioP1;P2;durP2;ratioP2
37049;SDS011;22958;51.232;6.826;2023-02-13T00:00:29;18.52;;;9.05;;
37049;SDS011;22958;51.232;6.826;2023-02-13T00:02:54;17.17;;;8.53;;
37049;SDS011;22958;51.232;6.826;2023-02-13T00:05:20;19.93;;;9.57;;
37049;SDS011;22958;51.232;6.826;2023-02-13T00:07:45;19.67;;;9.17;;
37049;SDS011;22958;51.232;6.826;2023-02-13T00:10:11;21.30;;;10.13;;
37049;SDS011;22958;51.232;6.826;2023-02-13T00:12:37;21.03;;;9.07;;
37049;SDS011;22958;51.232;6.826;2023-02-13T00:15:02;20.47;;;9.50;;
37049;SDS011;22958;51.232;6.826;2023-02-13T00:17:28;22.30;;;10.23;;
37049;SDS011;22958;51.232;6.826;2023-02-13T00:19:54;20.47;;;9.07;;
37049;SDS011;22958;51.232;6.826;2023-02-13T00:22:19;19.30;;;9.43;;
37049;SDS011;22958;51.232;6.826;2023-02-13T00:24:45;19.77;;;9.90;;
37049;SDS011;22958;51.232;6.826;2023-02-13T00:27:11;20.33;;;9.60;;
37049;SDS011;22958;51.232;6.826;2023-02-13T00:29:36;22.83;;;10.77;;
37049;SDS011;22958;51.232;6.826;2023-02-13T00:32:02;20.77;;;9.47;;
37049;SDS011;22958;51.232;6.826;2023-02-13T00:34:27;24.17;;;10.73;;
37049;SDS011;22958;51.232;6.826;2023-02-13T00:36:53;22.37;;;10.53;;
37049;SDS011;22958;51.232;6.826;2023-02-13T00:39:18;20.23;;;10.27;;
37049;SDS011;22958;51.232;6.826;2023-02-13T00:41:44;17.87;;;9.40;;
37049;SDS011;22958;51.232;6.826;2023-02-13T00:44:09;21.80;;;10.20;;
37049;SDS011;22958;51.232;6.826;2023-02-13T00:46:35;25.83;;;12.07;;
37049;SDS011;22958;51.232;6.826;2023-02-13T00:49:02;23.48;;;11.25;;
37049;SDS011;22958;51.232;6.826;2023-02-13T00:51:28;21.23;;;11.05;;
37049;SDS011;22958;51.232;6.826;2023-02-13T00:53:54;24.10;;;11.47;;
37049;SDS011;22958;51.232;6.826;2023-02-13T00:56:19;26.80;;;13.03;;
37049;SDS011;22958;51.232;6.826;2023-02-13T00:58:45;31.53;;;12.17;;
37049;SDS011;22958;51.232;6.826;2023-02-13T01:01:11;31.37;;;13.03;;
37049;SDS011;22958;51.232;6.826;2023-02-13T01:03:36;26.50;;;12.40;;
37049;SDS011;22958;51.232;6.826;2023-02-13T01:06:02;26.17;;;11.97;;
37049;SDS011;22958;51.232;6.826;2023-02-13T01:08:27;27.20;;;12.37;;
37049;SDS011;22958;51.232;6.826;2023-02-13T01:10:53;24.90;;;11.37;;
37049;SDS011;22958;51.232;6.826;2023-02-13T01:13:19;25.48;;;11.75;;
37049;SDS011;22958;51.232;6.826;2023-02-13T01:15:45;25.97;;;11.80;;
37049;SDS011;22958;51.232;6.826;2023-02-13T01:18:13;31.63;;;13.15;;
37049;SDS011;22958;51.232;6.826;2023-02-13T01:20:40;25.33;;;12.52;;
37049;SDS011;22958;51.232;6.826;2023-02-13T01:23:08;22.63;;;11.63;;
37049;SDS011;22958;51.232;6.826;2023-02-13T01:25:33;29.25;;;12.57;;
37049;SDS011;22958;51.232;6.826;2023-02-13T01:27:59;32.47;;;13.37;;
37049;SDS011;22958;51.232;6.826;2023-02-13T01:30:25;25.37;;;12.90;;
37049;SDS011;22958;51.232;6.826;2023-02-13T01:32:50;24.03;;;11.23;;
37049;SDS011;22958;51.232;6.826;2023-02-13T01:35:16;28.13;;;12.53;;
37049;SDS011;22958;51.232;6.826;2023-02-13T01:37:41;28.13;;;13.10;;
37049;SDS011;22958;51.232;6.826;2023-02-13T01:40:09;25.48;;;11.88;;
37049;SDS011;22958;51.232;6.826;2023-02-13T01:42:37;23.98;;;12.38;;
37049;SDS011;22958;51.232;6.826;2023-02-13T01:47:45;26.73;;;12.43;;
37049;SDS011;22958;51.232;6.826;2023-02-13T01:50:18;28.42;;;13.25;;
37049;SDS011;22958;51.232;6.826;2023-02-13T01:53:09;25.63;;;12.48;;
37049;SDS011;22958;51.232;6.826;2023-02-13T01:55:52;31.15;;;13.32;;
37049;SDS011;22958;51.232;6.826;2023-02-13T01:58:23;26.73;;;12.68;;
37049;SDS011;22958;51.232;6.826;2023-02-13T02:00:51;29.13;;;13.45;;
37049;SDS011;22958;51.232;6.826;2023-02-13T02:03:18;27.47;;;12.43;;
37049;SDS011;22958;51.232;6.826;2023-02-13T02:05:48;29.60;;;13.43;;
37049;SDS011;22958;51.232;6.826;2023-02-13T02:08:16;29.38;;;13.02;;
37049;SDS011;22958;51.232;6.826;2023-02-13T02:10:43;30.13;;;14.13;;
37049;SDS011;22958;51.232;6.826;2023-02-13T02:13:13;26.63;;;12.63;;
37049;SDS011;22958;51.232;6.826;2023-02-13T02:15:44;28.08;;;12.52;;
37049;SDS011;22958;51.232;6.826;2023-02-13T02:23:36;24.15;;;12.30;;
37049;SDS011;22958;51.232;6.826;2023-02-13T02:29:23;28.80;;;12.93;;
37049;SDS011;22958;51.232;6.826;2023-02-13T02:34:55;26.58;;;12.07;;
37049;SDS011;22958;51.232;6.826;2023-02-13T02:37:52;26.50;;;12.25;;
37049;SDS011;22958;51.232;6.826;2023-02-13T02:40:48;24.58;;;12.13;;
37049;SDS011;22958;51.232;6.826;2023-02-13T02:43:45;25.52;;;11.55;;
37049;SDS011;22958;51.232;6.826;2023-02-13T02:46:20;24.70;;;11.30;;
37049;SDS011;22958;51.232;6.826;2023-02-13T02:49:03;24.80;;;10.98;;
37049;SDS011;22958;51.232;6.826;2023-02-13T02:52:14;25.88;;;11.60;;
37049;SDS011;22958;51.232;6.826;2023-02-13T02:54:45;21.52;;;10.60;;
37049;SDS011;22958;51.232;6.826;2023-02-13T02:57:47;25.40;;;11.48;;
37049;SDS011;22958;51.232;6.826;2023-02-13T03:00:35;21.75;;;11.23;;
37049;SDS011;22958;51.232;6.826;2023-02-13T03:03:22;23.05;;;10.40;;
37049;SDS011;22958;51.232;6.826;2023-02-13T03:06:31;21.73;;;10.65;;
37049;SDS011;22958;51.232;6.826;2023-02-13T03:09:23;22.02;;;10.27;;
37049;SDS011;22958;51.232;6.826;2023-02-13T03:12:11;27.05;;;12.45;;
37049;SDS011;22958;51.232;6.826;2023-02-13T03:15:01;25.30;;;11.45;;
37049;SDS011;22958;51.232;6.826;2023-02-13T03:17:27;24.80;;;11.57;;
37049;SDS011;22958;51.232;6.826;2023-02-13T03:20:13;24.67;;;11.40;;
37049;SDS011;22958;51.232;6.826;2023-02-13T03:23:11;20.00;;;9.48;;
37049;SDS011;22958;51.232;6.826;2023-02-13T03:26:05;22.80;;;9.75;;
37049;SDS011;22958;51.232;6.826;2023-02-13T03:29:00;27.00;;;9.88;;
37049;SDS011;22958;51.232;6.826;2023-02-13T03:35:47;25.35;;;10.57;;
37049;SDS011;22958;51.232;6.826;2023-02-13T03:38:35;26.52;;;11.07;;
37049;SDS011;22958;51.232;6.826;2023-02-13T03:41:12;20.75;;;9.50;;
37049;SDS011;22958;51.232;6.826;2023-02-13T03:44:02;24.35;;;10.80;;
37049;SDS011;22958;51.232;6.826;2023-02-13T03:47:01;22.98;;;10.13;;
37049;SDS011;22958;51.232;6.826;2023-02-13T03:49:34;23.23;;;10.10;;
37049;SDS011;22958;51.232;6.826;2023-02-13T03:52:23;24.20;;;11.40;;
37049;SDS011;22958;51.232;6.826;2023-02-13T03:54:56;24.33;;;10.75;;
37049;SDS011;22958;51.232;6.826;2023-02-13T03:57:44;22.77;;;11.02;;
37049;SDS011;22958;51.232;6.826;2023-02-13T04:00:42;21.67;;;10.82;;
37049;SDS011;22958;51.232;6.826;2023-02-13T04:03:24;25.48;;;11.43;;
37049;SDS011;22958;51.232;6.826;2023-02-13T04:06:01;20.70;;;10.55;;
37049;SDS011;22958;51.232;6.826;2023-02-13T04:08:31;21.40;;;10.82;;
37049;SDS011;22958;51.232;6.826;2023-02-13T04:10:58;25.83;;;11.47;;
37049;SDS011;22958;51.232;6.826;2023-02-13T04:13:33;22.25;;;11.27;;
37049;SDS011;22958;51.232;6.826;2023-02-13T04:16:05;24.20;;;11.25;;
37049;SDS011;22958;51.232;6.826;2023-02-13T04:18:40;21.73;;;11.40;;
37049;SDS011;22958;51.232;6.826;2023-02-13T04:21:07;23.73;;;12.15;;
37049;SDS011;22958;51.232;6.826;2023-02-13T04:23:33;23.63;;;11.00;;
37049;SDS011;22958;51.232;6.826;2023-02-13T04:25:59;22.43;;;11.63;;
37049;SDS011;22958;51.232;6.826;2023-02-13T04:28:27;26.17;;;12.40;;
37049;SDS011;22958;51.232;6.826;2023-02-13T04:30:53;22.53;;;11.60;;
37049;SDS011;22958;51.232;6.826;2023-02-13T04:33:18;23.90;;;12.13;;
37049;SDS011;22958;51.232;6.826;2023-02-13T04:35:44;27.03;;;12.20;;
37049;SDS011;22958;51.232;6.826;2023-02-13T04:38:09;24.17;;;12.70;;
37049;SDS011;22958;51.232;6.826;2023-02-13T04:40:35;26.73;;;12.37;;
37049;SDS011;22958;51.232;6.826;2023-02-13T04:43:00;26.43;;;11.83;;
37049;SDS011;22958;51.232;6.826;2023-02-13T04:45:26;28.37;;;13.07;;
37049;SDS011;22958;51.232;6.826;2023-02-13T04:47:52;26.50;;;12.53;;
37049;SDS011;22958;51.232;6.826;2023-02-13T04:50:19;24.08;;;12.65;;
37049;SDS011;22958;51.232;6.826;2023-02-13T04:52:45;26.60;;;12.50;;
37049;SDS011;22958;51.232;6.826;2023-02-13T04:55:11;25.97;;;12.77;;
37049;SDS011;22958;51.232;6.826;2023-02-13T04:57:37;27.67;;;13.15;;
37049;SDS011;22958;51.232;6.826;2023-02-13T05:00:04;26.77;;;13.40;;
37049;SDS011;22958;51.232;6.826;2023-02-13T05:02:30;27.85;;;12.93;;
37049;SDS011;22958;51.232;6.826;2023-02-13T05:04:56;25.63;;;12.97;;
37049;SDS011;22958;51.232;6.826;2023-02-13T05:07:21;28.77;;;13.57;;
37049;SDS011;22958;51.232;6.826;2023-02-13T05:09:47;25.47;;;13.40;;
37049;SDS011;22958;51.232;6.826;2023-02-13T05:12:12;24.17;;;12.47;;
37049;SDS011;22958;51.232;6.826;2023-02-13T05:14:38;23.43;;;12.93;;
37049;SDS011;22958;51.232;6.826;2023-02-13T05:17:03;28.10;;;14.20;;
37049;SDS011;22958;51.232;6.826;2023-02-13T05:19:29;28.83;;;14.43;;
37049;SDS011;22958;51.232;6.826;2023-02-13T05:21:54;31.07;;;14.67;;
37049;SDS011;22958;51.232;6.826;2023-02-13T05:24:38;25.00;;;13.50;;
37049;SDS011;22958;51.232;6.826;2023-02-13T05:27:04;30.93;;;14.43;;
37049;SDS011;22958;51.232;6.826;2023-02-13T05:29:29;34.20;;;14.90;;
37049;SDS011;22958;51.232;6.826;2023-02-13T05:31:55;25.93;;;13.90;;
37049;SDS011;22958;51.232;6.826;2023-02-13T05:36:48;28.30;;;14.85;;
37049;SDS011;22958;51.232;6.826;2023-02-13T05:39:14;29.70;;;15.03;;
37049;SDS011;22958;51.232;6.826;2023-02-13T05:41:41;29.08;;;14.73;;
37049;SDS011;22958;51.232;6.826;2023-02-13T05:46:32;27.48;;;14.27;;
37049;SDS011;22958;51.232;6.826;2023-02-13T05:48:58;28.57;;;14.67;;
37049;SDS011;22958;51.232;6.826;2023-02-13T05:51:24;32.53;;;15.03;;
37049;SDS011;22958;51.232;6.826;2023-02-13T05:53:49;31.73;;;14.70;;
37049;SDS011;22958;51.232;6.826;2023-02-13T05:56:15;28.57;;;14.43;;
37049;SDS011;22958;51.232;6.826;2023-02-13T05:58:40;29.90;;;14.90;;
37049;SDS011;22958;51.232;6.826;2023-02-13T06:01:06;33.57;;;15.23;;
37049;SDS011;22958;51.232;6.826;2023-02-13T06:03:31;32.30;;;16.63;;
37049;SDS011;22958;51.232;6.826;2023-02-13T06:05:57;35.53;;;15.30;;
37049;SDS011;22958;51.232;6.826;2023-02-13T06:08:23;33.13;;;15.30;;
37049;SDS011;22958;51.232;6.826;2023-02-13T06:10:49;33.05;;;15.70;;
37049;SDS011;22958;51.232;6.826;2023-02-13T06:13:15;29.43;;;15.40;;
37049;SDS011;22958;51.232;6.826;2023-02-13T06:15:41;32.03;;;15.50;;
37049;SDS011;22958;51.232;6.826;2023-02-13T06:18:06;32.43;;;15.93;;
37049;SDS011;22958;51.232;6.826;2023-02-13T06:20:33;28.50;;;15.17;;
37049;SDS011;22958;51.232;6.826;2023-02-13T06:22:58;32.67;;;16.10;;
37049;SDS011;22958;51.232;6.826;2023-02-13T06:25:24;31.17;;;14.97;;
37049;SDS011;22958;51.232;6.826;2023-02-13T06:27:50;36.93;;;16.30;;
37049;SDS011;22958;51.232;6.826;2023-02-13T06:30:16;30.33;;;15.00;;
37049;SDS011;22958;51.232;6.826;2023-02-13T06:32:42;29.85;;;14.98;;
37049;SDS011;22958;51.232;6.826;2023-02-13T06:35:09;33.92;;;14.63;;
37049;SDS011;22958;51.232;6.826;2023-02-13T06:37:35;36.53;;;16.57;;
37049;SDS011;22958;51.232;6.826;2023-02-13T06:40:00;28.33;;;14.07;;
37049;SDS011;22958;51.232;6.826;2023-02-13T06:42:26;27.93;;;13.83;;
37049;SDS011;22958;51.232;6.826;2023-02-13T06:44:52;34.87;;;15.93;;
37049;SDS011;22958;51.232;6.826;2023-02-13T06:47:17;34.90;;;16.47;;
37049;SDS011;22958;51.232;6.826;2023-02-13T06:49:43;30.80;;;15.67;;
37049;SDS011;22958;51.232;6.826;2023-02-13T06:52:09;34.97;;;15.37;;
37049;SDS011;22958;51.232;6.826;2023-02-13T06:54:34;34.70;;;15.33;;
37049;SDS011;22958;51.232;6.826;2023-02-13T06:57:00;34.03;;;15.90;;
37049;SDS011;22958;51.232;6.826;2023-02-13T06:59:25;32.90;;;15.37;;
37049;SDS011;22958;51.232;6.826;2023-02-13T07:01:51;30.20;;;14.37;;
37049;SDS011;22958;51.232;6.826;2023-02-13T07:04:16;29.87;;;14.67;;
37049;SDS011;22958;51.232;6.826;2023-02-13T07:06:42;36.13;;;15.97;;
37049;SDS011;22958;51.232;6.826;2023-02-13T07:09:07;33.77;;;16.30;;
37049;SDS011;22958;51.232;6.826;2023-02-13T07:11:33;29.83;;;15.63;;
37049;SDS011;22958;51.232;6.826;2023-02-13T07:13:58;34.67;;;16.03;;
37049;SDS011;22958;51.232;6.826;2023-02-13T07:16:24;34.60;;;16.47;;
37049;SDS011;22958;51.232;6.826;2023-02-13T07:18:49;33.17;;;16.33;;
37049;SDS011;22958;51.232;6.826;2023-02-13T07:21:15;29.53;;;14.70;;
37049;SDS011;22958;51.232;6.826;2023-02-13T07:23:40;33.23;;;15.77;;
37049;SDS011;22958;51.232;6.826;2023-02-13T07:26:06;32.07;;;16.17;;
37049;SDS011;22958;51.232;6.826;2023-02-13T07:28:32;28.87;;;14.10;;
37049;SDS011;22958;51.232;6.826;2023-02-13T07:30:57;34.50;;;15.20;;
37049;SDS011;22958;51.232;6.826;2023-02-13T07:33:27;32.38;;;15.80;;
37049;SDS011;22958;51.232;6.826;2023-02-13T07:35:53;31.43;;;15.60;;
37049;SDS011;22958;51.232;6.826;2023-02-13T07:38:18;36.17;;;17.67;;
37049;SDS011;22958;51.232;6.826;2023-02-13T07:40:44;37.27;;;16.43;;
37049;SDS011;22958;51.232;6.826;2023-02-13T07:43:10;35.03;;;16.40;;
37049;SDS011;22958;51.232;6.826;2023-02-13T07:48:02;32.80;;;15.32;;
37049;SDS011;22958;51.232;6.826;2023-02-13T07:50:28;34.63;;;16.50;;
37049;SDS011;22958;51.232;6.826;2023-02-13T07:52:57;30.90;;;16.40;;
37049;SDS011;22958;51.232;6.826;2023-02-13T07:55:24;34.20;;;16.25;;
37049;SDS011;22958;51.232;6.826;2023-02-13T07:57:50;32.30;;;16.92;;
37049;SDS011;22958;51.232;6.826;2023-02-13T08:00:16;35.50;;;16.33;;
37049;SDS011;22958;51.232;6.826;2023-02-13T08:02:42;37.97;;;17.35;;
37049;SDS011;22958;51.232;6.826;2023-02-13T08:05:08;33.07;;;16.53;;
37049;SDS011;22958;51.232;6.826;2023-02-13T08:07:33;34.37;;;16.70;;
37049;SDS011;22958;51.232;6.826;2023-02-13T08:09:59;32.67;;;15.77;;
37049;SDS011;22958;51.232;6.826;2023-02-13T08:12:44;31.10;;;15.52;;
37049;SDS011;22958;51.232;6.826;2023-02-13T08:15:11;26.23;;;14.55;;
37049;SDS011;22958;51.232;6.826;2023-02-13T08:17:38;31.17;;;15.73;;
37049;SDS011;22958;51.232;6.826;2023-02-13T08:20:04;32.30;;;15.00;;
37049;SDS011;22958;51.232;6.826;2023-02-13T08:22:37;31.00;;;14.57;;
37049;SDS011;22958;51.232;6.826;2023-02-13T08:25:03;32.08;;;15.32;;
37049;SDS011;22958;51.232;6.826;2023-02-13T08:27:30;31.20;;;15.07;;
37049;SDS011;22958;51.232;6.826;2023-02-13T08:29:56;32.83;;;15.10;;
37049;SDS011;22958;51.232;6.826;2023-02-13T08:32:22;26.25;;;13.55;;
37049;SDS011;22958;51.232;6.826;2023-02-13T08:34:48;29.60;;;15.43;;
37049;SDS011;22958;51.232;6.826;2023-02-13T08:37:14;34.63;;;15.70;;
37049;SDS011;22958;51.232;6.826;2023-02-13T08:39:40;28.23;;;14.63;;
37049;SDS011;22958;51.232;6.826;2023-02-13T08:42:05;29.30;;;14.43;;
37049;SDS011;22958;51.232;6.826;2023-02-13T08:44:31;31.50;;;14.30;;
37049;SDS011;22958;51.232;6.826;2023-02-13T08:46:56;23.93;;;12.33;;
37049;SDS011;22958;51.232;6.826;2023-02-13T08:49:22;32.93;;;14.43;;
37049;SDS011;22958;51.232;6.826;2023-02-13T08:51:48;27.17;;;13.23;;
37049;SDS011;22958;51.232;6.826;2023-02-13T08:54:14;24.42;;;12.05;;
37049;SDS011;22958;51.232;6.826;2023-02-13T08:56:40;24.60;;;12.93;;
37049;SDS011;22958;51.232;6.826;2023-02-13T08:59:06;27.15;;;13.15;;
37049;SDS011;22958;51.232;6.826;2023-02-13T09:01:31;26.67;;;12.80;;
37049;SDS011;22958;51.232;6.826;2023-02-13T09:03:57;30.97;;;14.07;;
37049;SDS011;22958;51.232;6.826;2023-02-13T09:06:22;25.10;;;12.53;;
37049;SDS011;22958;51.232;6.826;2023-02-13T09:08:50;26.75;;;13.60;;
37049;SDS011;22958;51.232;6.826;2023-02-13T09:11:16;22.60;;;12.02;;
37049;SDS011;22958;51.232;6.826;2023-02-13T09:13:43;22.85;;;12.27;;
37049;SDS011;22958;51.232;6.826;2023-02-13T09:16:09;29.07;;;13.67;;
37049;SDS011;22958;51.232;6.826;2023-02-13T09:18:35;26.20;;;12.97;;
37049;SDS011;22958;51.232;6.826;2023-02-13T09:21:05;22.80;;;11.90;;
37049;SDS011;22958;51.232;6.826;2023-02-13T09:23:33;25.20;;;11.60;;
37049;SDS011;22958;51.232;6.826;2023-02-13T09:26:01;22.80;;;10.30;;
37049;SDS011;22958;51.232;6.826;2023-02-13T09:28:28;21.55;;;10.85;;
37049;SDS011;22958;51.232;6.826;2023-02-13T09:30:55;24.55;;;11.73;;
37049;SDS011;22958;51.232;6.826;2023-02-13T09:33:21;21.60;;;11.25;;
37049;SDS011;22958;51.232;6.826;2023-02-13T09:35:47;23.10;;;12.48;;
37049;SDS011;22958;51.232;6.826;2023-02-13T09:38:13;26.67;;;13.50;;
37049;SDS011;22958;51.232;6.826;2023-02-13T09:40:55;21.63;;;11.20;;
37049;SDS011;22958;51.232;6.826;2023-02-13T09:46:08;23.67;;;11.40;;
37049;SDS011;22958;51.232;6.826;2023-02-13T09:48:38;21.65;;;10.90;;
37049;SDS011;22958;51.232;6.826;2023-02-13T09:51:08;23.35;;;10.73;;
37049;SDS011;22958;51.232;6.826;2023-02-13T09:53:44;26.20;;;11.35;;
37049;SDS011;22958;51.232;6.826;2023-02-13T09:56:26;20.98;;;10.75;;
37049;SDS011;22958;51.232;6.826;2023-02-13T10:01:51;30.30;;;10.52;;
37049;SDS011;22958;51.232;6.826;2023-02-13T10:04:55;23.13;;;10.90;;
37049;SDS011;22958;51.232;6.826;2023-02-13T10:07:15;20.20;;;10.25;;
37049;SDS011;22958;51.232;6.826;2023-02-13T10:15:53;20.43;;;9.97;;
37049;SDS011;22958;51.232;6.826;2023-02-13T10:18:33;19.88;;;10.88;;
37049;SDS011;22958;51.232;6.826;2023-02-13T10:21:09;20.58;;;9.60;;
37049;SDS011;22958;51.232;6.826;2023-02-13T10:23:51;17.67;;;9.98;;
37049;SDS011;22958;51.232;6.826;2023-02-13T10:26:36;22.20;;;9.75;;
37049;SDS011;22958;51.232;6.826;2023-02-13T10:29:23;20.67;;;10.98;;
37049;SDS011;22958;51.232;6.826;2023-02-13T10:32:16;19.45;;;9.32;;
37049;SDS011;22958;51.232;6.826;2023-02-13T10:34:46;20.77;;;10.98;;
37049;SDS011;22958;51.232;6.826;2023-02-13T10:37:16;23.75;;;10.50;;
37049;SDS011;22958;51.232;6.826;2023-02-13T10:39:45;20.65;;;9.60;;
37049;SDS011;22958;51.232;6.826;2023-02-13T10:42:20;18.50;;;9.48;;
37049;SDS011;22958;51.232;6.826;2023-02-13T10:48:11;20.38;;;9.63;;
37049;SDS011;22958;51.232;6.826;2023-02-13T10:53:58;16.05;;;9.00;;
37049;SDS011;22958;51.232;6.826;2023-02-13T10:59:36;17.50;;;9.80;;
37049;SDS011;22958;51.232;6.826;2023-02-13T11:02:24;21.15;;;9.95;;
37049;SDS011;22958;51.232;6.826;2023-02-13T11:04:53;18.35;;;10.13;;
37049;SDS011;22958;51.232;6.826;2023-02-13T11:07:24;20.27;;;9.95;;
37049;SDS011;22958;51.232;6.826;2023-02-13T11:09:52;16.75;;;9.13;;
37049;SDS011;22958;51.232;6.826;2023-02-13T11:17:20;17.17;;;9.02;;
37049;SDS011;22958;51.232;6.826;2023-02-13T11:19:48;22.58;;;9.07;;
37049;SDS011;22958;51.232;6.826;2023-02-13T11:22:31;14.88;;;8.25;;
37049;SDS011;22958;51.232;6.826;2023-02-13T11:25:00;14.88;;;8.10;;
37049;SDS011;22958;51.232;6.826;2023-02-13T11:27:45;28.42;;;14.65;;
37049;SDS011;22958;51.232;6.826;2023-02-13T11:32:55;19.52;;;8.63;;
37049;SDS011;22958;51.232;6.826;2023-02-13T11:35:25;19.17;;;8.02;;
37049;SDS011;22958;51.232;6.826;2023-02-13T11:38:39;14.43;;;8.85;;
37049;SDS011;22958;51.232;6.826;2023-02-13T11:40:39;18.17;;;8.35;;
37049;SDS011;22958;51.232;6.826;2023-02-13T11:43:13;15.38;;;6.93;;
37049;SDS011;22958;51.232;6.826;2023-02-13T11:46:02;13.13;;;6.97;;
37049;SDS011;22958;51.232;6.826;2023-02-13T11:48:32;12.23;;;6.53;;
37049;SDS011;22958;51.232;6.826;2023-02-13T11:50:58;11.18;;;6.50;;
37049;SDS011;22958;51.232;6.826;2023-02-13T11:53:26;12.68;;;7.10;;
37049;SDS011;22958;51.232;6.826;2023-02-13T11:56:08;13.82;;;7.50;;
37049;SDS011;22958;51.232;6.826;2023-02-13T11:58:34;13.70;;;6.97;;
37049;SDS011;22958;51.232;6.826;2023-02-13T12:03:55;13.52;;;7.57;;
37049;SDS011;22958;51.232;6.826;2023-02-13T12:06:24;11.98;;;7.28;;
37049;SDS011;22958;51.232;6.826;2023-02-13T12:08:49;15.70;;;7.37;;
37049;SDS011;22958;51.232;6.826;2023-02-13T12:11:22;13.60;;;7.72;;
37049;SDS011;22958;51.232;6.826;2023-02-13T12:13:57;12.80;;;7.22;;
37049;SDS011;22958;51.232;6.826;2023-02-13T12:18:59;14.88;;;7.22;;
37049;SDS011;22958;51.232;6.826;2023-02-13T12:21:35;12.40;;;6.68;;
37049;SDS011;22958;51.232;6.826;2023-02-13T12:27:07;15.15;;;6.30;;
37049;SDS011;22958;51.232;6.826;2023-02-13T12:29:59;9.35;;;6.07;;
37049;SDS011;22958;51.232;6.826;2023-02-13T12:32:37;11.88;;;6.40;;
37049;SDS011;22958;51.232;6.826;2023-02-13T12:51:35;9.80;;;5.93;;
37049;SDS011;22958;51.232;6.826;2023-02-13T12:59:53;10.10;;;5.90;;
37049;SDS011;22958;51.232;6.826;2023-02-13T13:02:34;9.70;;;6.25;;
37049;SDS011;22958;51.232;6.826;2023-02-13T13:11:10;9.00;;;5.15;;
37049;SDS011;22958;51.232;6.826;2023-02-13T13:16:55;7.68;;;5.03;;
37049;SDS011;22958;51.232;6.826;2023-02-13T13:27:54;7.28;;;4.50;;
37049;SDS011;22958;51.232;6.826;2023-02-13T13:30:26;9.32;;;4.72;;
37049;SDS011;22958;51.232;6.826;2023-02-13T13:32:55;6.53;;;4.28;;
37049;SDS011;22958;51.232;6.826;2023-02-13T13:35:26;6.15;;;4.32;;
37049;SDS011;22958;51.232;6.826;2023-02-13T13:46:35;11.15;;;4.78;;
37049;SDS011;22958;51.232;6.826;2023-02-13T13:51:41;10.68;;;4.50;;
37049;SDS011;22958;51.232;6.826;2023-02-13T13:59:17;6.97;;;4.47;;
37049;SDS011;22958;51.232;6.826;2023-02-13T14:01:45;14.52;;;4.63;;
37049;SDS011;22958;51.232;6.826;2023-02-13T14:11:52;7.05;;;4.03;;
37049;SDS011;22958;51.232;6.826;2023-02-13T14:14:43;5.45;;;3.42;;
37049;SDS011;22958;51.232;6.826;2023-02-13T14:17:08;12.05;;;3.83;;
37049;SDS011;22958;51.232;6.826;2023-02-13T14:19:38;6.82;;;4.03;;
37049;SDS011;22958;51.232;6.826;2023-02-13T14:27:20;6.68;;;3.90;;
37049;SDS011;22958;51.232;6.826;2023-02-13T14:29:47;10.13;;;4.40;;
37049;SDS011;22958;51.232;6.826;2023-02-13T14:32:35;9.23;;;4.20;;
37049;SDS011;22958;51.232;6.826;2023-02-13T14:35:01;6.82;;;4.22;;
37049;SDS011;22958;51.232;6.826;2023-02-13T14:37:49;9.20;;;4.32;;
37049;SDS011;22958;51.232;6.826;2023-02-13T14:40:48;7.40;;;4.25;;
37049;SDS011;22958;51.232;6.826;2023-02-13T14:43:31;12.70;;;4.15;;
37049;SDS011;22958;51.232;6.826;2023-02-13T14:49:05;9.20;;;4.68;;
37049;SDS011;22958;51.232;6.826;2023-02-13T14:51:44;7.10;;;4.25;;
37049;SDS011;22958;51.232;6.826;2023-02-13T14:56:50;15.63;;;4.57;;
37049;SDS011;22958;51.232;6.826;2023-02-13T14:59:19;9.95;;;3.83;;
37049;SDS011;22958;51.232;6.826;2023-02-13T15:04:25;7.10;;;4.43;;
37049;SDS011;22958;51.232;6.826;2023-02-13T15:06:55;5.82;;;3.33;;
37049;SDS011;22958;51.232;6.826;2023-02-13T15:09:29;7.55;;;3.83;;
37049;SDS011;22958;51.232;6.826;2023-02-13T15:12:02;6.15;;;3.67;;
37049;SDS011;22958;51.232;6.826;2023-02-13T15:19:49;6.53;;;3.25;;
37049;SDS011;22958;51.232;6.826;2023-02-13T15:22:29;7.30;;;4.13;;
37049;SDS011;22958;51.232;6.826;2023-02-13T15:25:19;8.88;;;3.97;;
37049;SDS011;22958;51.232;6.826;2023-02-13T15:28:07;8.93;;;4.22;;
37049;SDS011;22958;51.232;6.826;2023-02-13T15:30:41;8.18;;;3.88;;
37049;SDS011;22958;51.232;6.826;2023-02-13T15:33:19;8.10;;;3.50;;
37049;SDS011;22958;51.232;6.826;2023-02-13T15:35:46;7.65;;;3.28;;
37049;SDS011;22958;51.232;6.826;2023-02-13T15:38:30;9.70;;;3.30;;
37049;SDS011;22958;51.232;6.826;2023-02-13T15:41:19;10.63;;;3.15;;
37049;SDS011;22958;51.232;6.826;2023-02-13T15:43:48;10.13;;;2.88;;
37049;SDS011;22958;51.232;6.826;2023-02-13T15:48:51;5.78;;;2.90;;
37049;SDS011;22958;51.232;6.826;2023-02-13T15:51:18;6.55;;;3.10;;
37049;SDS011;22958;51.232;6.826;2023-02-13T15:53:49;6.55;;;2.92;;
37049;SDS011;22958;51.232;6.826;2023-02-13T15:56:16;5.72;;;2.97;;
37049;SDS011;22958;51.232;6.826;2023-02-13T15:58:42;7.35;;;2.85;;
37049;SDS011;22958;51.232;6.826;2023-02-13T16:01:08;5.63;;;2.78;;
37049;SDS011;22958;51.232;6.826;2023-02-13T16:03:34;9.52;;;2.33;;
37049;SDS011;22958;51.232;6.826;2023-02-13T16:06:01;5.60;;;2.67;;
37049;SDS011;22958;51.232;6.826;2023-02-13T16:08:30;7.07;;;2.38;;
37049;SDS011;22958;51.232;6.826;2023-02-13T16:16:24;4.65;;;2.25;;
37049;SDS011;22958;51.232;6.826;2023-02-13T16:21:21;13.02;;;2.55;;
37049;SDS011;22958;51.232;6.826;2023-02-13T16:23:52;8.80;;;3.22;;
37049;SDS011;22958;51.232;6.826;2023-02-13T16:26:22;7.05;;;2.55;;
37049;SDS011;22958;51.232;6.826;2023-02-13T16:28:48;8.23;;;2.43;;
37049;SDS011;22958;51.232;6.826;2023-02-13T16:31:14;7.90;;;3.03;;
37049;SDS011;22958;51.232;6.826;2023-02-13T16:33:41;13.18;;;2.92;;
37049;SDS011;22958;51.232;6.826;2023-02-13T16:38:36;10.57;;;2.93;;
37049;SDS011;22958;51.232;6.826;2023-02-13T16:46:13;9.10;;;3.00;;
37049;SDS011;22958;51.232;6.826;2023-02-13T16:56:41;5.75;;;2.83;;
37049;SDS011;22958;51.232;6.826;2023-02-13T17:02:30;6.47;;;2.55;;
37049;SDS011;22958;51.232;6.826;2023-02-13T17:10:18;8.20;;;3.05;;
37049;SDS011;22958;51.232;6.826;2023-02-13T17:12:44;11.85;;;4.35;;
37049;SDS011;22958;51.232;6.826;2023-02-13T17:17:37;9.23;;;4.30;;
37049;SDS011;22958;51.232;6.826;2023-02-13T17:20:03;10.63;;;4.60;;
37049;SDS011;22958;51.232;6.826;2023-02-13T17:27:25;6.82;;;3.40;;
37049;SDS011;22958;51.232;6.826;2023-02-13T17:29:51;13.20;;;3.97;;
37049;SDS011;22958;51.232;6.826;2023-02-13T17:32:17;5.73;;;3.07;;
37049;SDS011;22958;51.232;6.826;2023-02-13T17:34:45;6.40;;;3.08;;
37049;SDS011;22958;51.232;6.826;2023-02-13T17:37:19;11.00;;;3.47;;
37049;SDS011;22958;51.232;6.826;2023-02-13T17:39:46;6.47;;;3.08;;
37049;SDS011;22958;51.232;6.826;2023-02-13T17:42:17;9.10;;;2.90;;
37049;SDS011;22958;51.232;6.826;2023-02-13T17:44:45;10.30;;;4.07;;
37049;SDS011;22958;51.232;6.826;2023-02-13T17:47:11;8.88;;;4.00;;
37049;SDS011;22958;51.232;6.826;2023-02-13T17:49:37;6.90;;;3.57;;
37049;SDS011;22958;51.232;6.826;2023-02-13T17:52:02;11.53;;;4.33;;
37049;SDS011;22958;51.232;6.826;2023-02-13T17:54:28;7.67;;;4.20;;
37049;SDS011;22958;51.232;6.826;2023-02-13T17:56:54;9.27;;;3.70;;